createdAt,value
2023-06-17T00:00:48.234Z,12.73
2023-06-17T00:03:19.062Z,12.99
2023-06-17T00:05:54.733Z,13.07
2023-06-17T00:08:23.440Z,13.30
2023-06-17T00:10:52.027Z,13.44
2023-06-17T00:13:22.370Z,13.49
2023-06-17T00:15:58.132Z,13.38
2023-06-17T00:18:27.355Z,13.18
2023-06-17T00:20:59.284Z,12.85
2023-06-17T00:23:28.561Z,12.79
2023-06-17T00:25:57.236Z,12.90
2023-06-17T00:28:28.986Z,13.10
2023-06-17T00:30:57.604Z,13.19
2023-06-17T00:33:26.169Z,13.04
2023-06-17T00:35:57.479Z,13.17
2023-06-17T00:38:27.464Z,13.16
2023-06-17T00:40:56.012Z,13.37
2023-06-17T00:43:24.661Z,13.30
2023-06-17T00:45:53.227Z,13.32
2023-06-17T00:48:21.867Z,13.34
2023-06-17T00:50:51.343Z,13.39
2023-06-17T00:53:20.170Z,13.44
2023-06-17T00:55:51.232Z,13.40
2023-06-17T00:58:20.864Z,13.19
2023-06-17T01:00:49.665Z,12.54
2023-06-17T01:03:19.124Z,12.13
2023-06-17T01:05:48.381Z,11.81
2023-06-17T01:08:31.494Z,11.59
2023-06-17T01:11:06.470Z,11.50
2023-06-17T01:13:37.096Z,11.39
2023-06-17T01:16:07.229Z,11.27
2023-06-17T01:18:37.940Z,11.30
2023-06-17T01:21:10.103Z,11.32
2023-06-17T01:23:39.722Z,11.17
2023-06-17T01:26:10.084Z,11.33
2023-06-17T01:28:41.817Z,11.36
2023-06-17T01:31:13.980Z,11.50
2023-06-17T01:33:46.189Z,11.55
2023-06-17T01:36:19.588Z,11.58
2023-06-17T01:38:52.389Z,11.57
2023-06-17T01:41:26.617Z,11.52
2023-06-17T01:43:58.620Z,11.42
2023-06-17T01:46:27.544Z,11.47
2023-06-17T01:48:56.977Z,11.40
2023-06-17T01:51:26.074Z,11.56
2023-06-17T01:53:56.226Z,11.63
2023-06-17T01:56:26.707Z,11.46
2023-06-17T01:58:57.648Z,11.23
2023-06-17T02:01:27.392Z,11.03
2023-06-17T02:03:56.002Z,10.81
2023-06-17T02:06:25.149Z,10.77
2023-06-17T02:08:54.598Z,10.81
2023-06-17T02:11:23.272Z,10.64
2023-06-17T02:13:53.423Z,10.62
2023-06-17T02:16:22.164Z,10.75
2023-06-17T02:18:54.840Z,10.83
2023-06-17T02:21:23.431Z,11.03
2023-06-17T02:23:52.331Z,11.19
2023-06-17T02:26:21.068Z,11.27
2023-06-17T02:28:49.851Z,11.36
2023-06-17T02:31:19.808Z,11.41
2023-06-17T02:33:48.575Z,11.48
2023-06-17T02:36:20.451Z,11.54
2023-06-17T02:38:49.846Z,11.59
2023-06-17T02:41:18.715Z,11.61
2023-06-17T02:43:47.358Z,11.67
2023-06-17T02:46:19.418Z,11.72
2023-06-17T02:48:47.979Z,11.70
2023-06-17T02:51:17.103Z,11.76
2023-06-17T02:53:45.883Z,11.80
2023-06-17T02:56:19.941Z,11.94
2023-06-17T02:58:48.894Z,12.07
2023-06-17T03:01:18.374Z,12.20
2023-06-17T03:03:49.664Z,12.37
2023-06-17T03:06:20.367Z,12.41
2023-06-17T03:08:51.425Z,12.53
2023-06-17T03:11:20.063Z,12.58
2023-06-17T03:13:48.685Z,12.78
2023-06-17T03:16:25.745Z,12.86
2023-06-17T03:18:57.000Z,12.92
2023-06-17T03:21:25.885Z,13.02
2023-06-17T03:23:55.101Z,13.13
2023-06-17T03:26:24.569Z,13.28
2023-06-17T03:28:53.531Z,13.44
2023-06-17T03:31:23.934Z,13.65
2023-06-17T03:33:54.352Z,13.87
2023-06-17T03:36:29.830Z,14.12
2023-06-17T03:38:59.951Z,14.34
2023-06-17T03:41:33.749Z,14.52
2023-06-17T03:44:03.596Z,14.61
2023-06-17T03:46:32.185Z,14.82
2023-06-17T03:49:03.518Z,14.87
2023-06-17T03:51:33.713Z,14.96
2023-06-17T03:54:03.922Z,15.08
2023-06-17T03:56:36.747Z,15.15
2023-06-17T03:59:05.550Z,15.18
2023-06-17T04:01:34.614Z,15.32
2023-06-17T04:04:04.457Z,15.51
2023-06-17T04:06:34.593Z,15.75
2023-06-17T04:09:03.649Z,15.96
2023-06-17T04:11:34.153Z,15.97
2023-06-17T04:14:03.111Z,16.35
2023-06-17T04:16:36.910Z,16.45
2023-06-17T04:19:05.656Z,16.50
2023-06-17T04:21:35.987Z,16.55
2023-06-17T04:24:05.859Z,16.71
2023-06-17T04:26:34.926Z,16.74
2023-06-17T04:29:04.839Z,16.90
2023-06-17T04:31:37.067Z,17.10
2023-06-17T04:34:06.735Z,17.13
2023-06-17T04:36:38.674Z,17.22
2023-06-17T04:39:11.610Z,17.24
2023-06-17T04:41:47.816Z,17.33
2023-06-17T04:44:16.857Z,17.49
2023-06-17T04:46:46.770Z,17.57
2023-06-17T04:49:16.560Z,17.87
2023-06-17T04:51:46.603Z,18.13
2023-06-17T04:54:15.500Z,18.16
2023-06-17T04:56:44.532Z,18.23
2023-06-17T04:59:13.241Z,18.34
2023-06-17T05:01:42.453Z,18.38
2023-06-17T05:04:11.284Z,18.45
2023-06-17T05:06:39.961Z,18.53
2023-06-17T05:09:10.290Z,18.75
2023-06-17T05:11:42.075Z,18.77
2023-06-17T05:14:10.932Z,18.92
2023-06-17T05:16:40.006Z,19.23
2023-06-17T05:19:10.024Z,19.30
2023-06-17T05:21:38.789Z,19.53
2023-06-17T05:24:07.932Z,19.74
2023-06-17T05:26:39.036Z,19.75
2023-06-17T05:29:07.669Z,19.71
2023-06-17T05:31:38.802Z,19.77
2023-06-17T05:34:07.609Z,19.85
2023-06-17T05:36:36.967Z,19.95
2023-06-17T05:39:05.795Z,20.01
2023-06-17T05:41:34.403Z,20.15
2023-06-17T05:52:15.087Z,20.89
2023-06-17T05:54:44.028Z,21.11
2023-06-17T05:57:13.112Z,21.14
2023-06-17T05:59:41.617Z,21.15
2023-06-17T06:02:10.186Z,21.39
2023-06-17T06:04:38.731Z,21.35
2023-06-17T06:07:07.361Z,21.47
2023-06-17T06:09:37.530Z,21.51
2023-06-17T06:12:07.489Z,21.73
2023-06-17T06:14:36.094Z,21.89
2023-06-17T06:17:06.744Z,22.11
2023-06-17T06:19:35.297Z,22.19
2023-06-17T06:22:04.028Z,22.19
2023-06-17T06:24:32.758Z,22.43
2023-06-17T06:27:03.047Z,22.34
2023-06-17T06:29:31.589Z,22.55
2023-06-17T06:32:00.449Z,22.76
2023-06-17T06:34:29.892Z,23.03
2023-06-17T06:37:02.110Z,23.15
2023-06-17T06:39:32.439Z,23.49
2023-06-17T06:42:03.513Z,23.32
2023-06-17T06:44:47.373Z,23.29
2023-06-17T06:47:18.590Z,23.29
2023-06-17T06:49:48.192Z,23.50
2023-06-17T06:52:16.893Z,23.73
2023-06-17T06:54:46.288Z,23.83
2023-06-17T06:57:17.150Z,23.88
2023-06-17T06:59:46.304Z,24.02
2023-06-17T07:02:14.941Z,24.09
2023-06-17T07:04:44.506Z,24.36
2023-06-17T07:07:13.260Z,24.56
2023-06-17T07:09:42.759Z,24.51
2023-06-17T07:12:12.856Z,24.72
2023-06-17T07:14:43.679Z,24.92
2023-06-17T07:17:13.758Z,24.85
2023-06-17T07:19:43.476Z,24.96
2023-06-17T07:22:12.421Z,25.03
2023-06-17T07:24:41.130Z,25.11
2023-06-17T07:27:09.989Z,25.06
2023-06-17T07:29:39.434Z,25.00
2023-06-17T07:32:09.993Z,24.99
2023-06-17T07:34:38.781Z,25.13
2023-06-17T07:37:07.656Z,25.26
2023-06-17T07:39:36.499Z,25.16
2023-06-17T07:42:05.488Z,25.36
2023-06-17T07:44:34.385Z,25.52
2023-06-17T07:47:02.908Z,25.61
2023-06-17T07:49:33.406Z,25.44
2023-06-17T07:52:01.825Z,25.59
2023-06-17T07:54:30.381Z,25.87
2023-06-17T07:56:59.132Z,25.90
2023-06-17T07:59:27.914Z,26.01
2023-06-17T08:01:56.679Z,26.11
2023-06-17T08:04:25.283Z,26.31
2023-06-17T08:06:55.349Z,26.19
2023-06-17T08:09:23.931Z,26.29
2023-06-17T08:11:52.464Z,26.39
2023-06-17T08:14:21.200Z,26.39
2023-06-17T08:16:49.790Z,26.52
2023-06-17T08:19:18.427Z,26.70
2023-06-17T08:21:47.028Z,26.84
2023-06-17T08:24:21.135Z,26.86
2023-06-17T08:26:50.550Z,26.90
2023-06-17T08:29:20.129Z,26.81
2023-06-17T08:31:49.848Z,26.74
2023-06-17T08:34:18.545Z,27.07
2023-06-17T08:36:49.022Z,27.10
2023-06-17T08:39:17.412Z,27.08
2023-06-17T08:41:49.180Z,27.05
2023-06-17T08:44:21.089Z,27.14
2023-06-17T08:46:53.136Z,27.17
2023-06-17T08:49:24.696Z,27.08
2023-06-17T08:51:53.796Z,27.21
2023-06-17T08:54:23.951Z,27.28
2023-06-17T08:56:55.301Z,27.00
2023-06-17T08:59:23.950Z,26.73
2023-06-17T09:01:54.586Z,26.92
2023-06-17T09:04:24.728Z,26.76
2023-06-17T09:06:53.985Z,27.10
2023-06-17T09:09:22.527Z,27.36
2023-06-17T09:11:53.237Z,27.38
2023-06-17T09:14:26.425Z,27.60
2023-06-17T09:16:55.618Z,27.57
2023-06-17T09:19:25.627Z,27.94
2023-06-17T09:21:54.826Z,27.81
2023-06-17T09:24:31.218Z,27.70
2023-06-17T09:27:00.007Z,27.54
2023-06-17T09:29:31.842Z,27.28
2023-06-17T09:32:03.604Z,27.21
2023-06-17T09:34:32.334Z,27.39
2023-06-17T09:37:02.900Z,27.57
2023-06-17T09:39:33.075Z,27.48
2023-06-17T09:42:10.446Z,27.89
2023-06-17T09:44:41.063Z,28.09
2023-06-17T09:47:10.748Z,28.13
2023-06-17T09:49:39.553Z,28.11
2023-06-17T09:52:10.807Z,28.22
2023-06-17T09:54:42.535Z,28.07
2023-06-17T09:57:15.095Z,28.23
2023-06-17T09:59:46.788Z,28.19
2023-06-17T10:02:15.608Z,28.56
2023-06-17T10:04:45.918Z,28.51
2023-06-17T10:07:16.755Z,28.09
2023-06-17T10:09:45.402Z,27.95
2023-06-17T10:12:14.871Z,28.08
2023-06-17T10:14:46.498Z,28.44
2023-06-17T10:17:15.844Z,28.39
2023-06-17T10:19:46.120Z,28.63
2023-06-17T10:22:16.582Z,28.78
2023-06-17T10:24:45.182Z,28.42
2023-06-17T10:27:13.823Z,28.28
2023-06-17T10:29:45.895Z,27.88
2023-06-17T10:32:24.432Z,27.64
2023-06-17T10:35:10.889Z,27.49
2023-06-17T10:37:44.164Z,27.64
2023-06-17T10:40:27.348Z,27.64
2023-06-17T10:43:15.624Z,27.45
2023-06-17T10:45:55.981Z,27.34
2023-06-17T10:48:30.145Z,27.31
2023-06-17T10:51:00.120Z,26.95
2023-06-17T10:53:30.918Z,27.21
2023-06-17T10:56:02.384Z,27.23
2023-06-17T10:58:34.710Z,27.38
2023-06-17T11:01:06.407Z,27.46
2023-06-17T11:03:36.030Z,27.48
2023-06-17T11:06:06.271Z,27.41
2023-06-17T11:08:36.046Z,27.47
2023-06-17T11:11:09.765Z,27.63
2023-06-17T11:13:40.475Z,27.54
2023-06-17T11:16:11.334Z,27.36
2023-06-17T11:18:41.455Z,27.52
2023-06-17T11:21:10.880Z,27.63
2023-06-17T11:23:40.070Z,27.77
2023-06-17T11:26:09.515Z,27.84
2023-06-17T11:28:38.512Z,27.92
2023-06-17T11:31:10.474Z,27.86
2023-06-17T11:33:40.423Z,28.00
2023-06-17T11:36:14.400Z,27.99
2023-06-17T11:38:44.158Z,27.65
2023-06-17T11:41:12.654Z,27.62
2023-06-17T11:43:41.499Z,27.90
2023-06-17T11:46:11.502Z,27.83
2023-06-17T11:48:40.072Z,27.73
2023-06-17T11:51:09.174Z,27.56
2023-06-17T11:53:39.232Z,27.42
2023-06-17T11:56:09.177Z,27.58
2023-06-17T11:58:40.197Z,27.57
2023-06-17T12:01:11.501Z,27.60
2023-06-17T12:03:40.546Z,27.65
2023-06-17T12:06:09.211Z,27.48
2023-06-17T12:08:39.374Z,27.62
2023-06-17T12:11:08.548Z,27.58
2023-06-17T12:13:41.650Z,27.58
2023-06-17T12:16:25.077Z,27.39
2023-06-17T12:18:54.406Z,27.28
2023-06-17T12:21:23.493Z,27.30
2023-06-17T12:23:54.689Z,27.00
2023-06-17T12:26:25.288Z,27.05
2023-06-17T12:28:54.037Z,27.09
2023-06-17T12:31:24.569Z,27.24
2023-06-17T12:33:52.915Z,27.20
2023-06-17T12:36:21.459Z,27.39
2023-06-17T12:38:50.624Z,27.54
2023-06-17T12:41:19.357Z,27.33
2023-06-17T12:46:21.653Z,27.44
2023-06-17T12:48:51.793Z,27.54
2023-06-17T12:51:20.510Z,27.61
2023-06-17T12:53:49.100Z,27.69
2023-06-17T12:56:17.722Z,27.70
2023-06-17T12:58:46.237Z,27.57
2023-06-17T13:01:15.166Z,27.59
2023-06-17T13:03:43.746Z,27.64
2023-06-17T13:06:14.627Z,27.37
2023-06-17T13:08:43.827Z,27.59
2023-06-17T13:11:13.191Z,27.60
2023-06-17T13:13:41.853Z,27.04
2023-06-17T13:16:10.695Z,27.24
2023-06-17T13:18:39.251Z,27.38
2023-06-17T13:21:07.817Z,27.44
2023-06-17T13:23:38.000Z,27.67
2023-06-17T13:26:06.713Z,27.76
2023-06-17T13:28:36.213Z,27.70
2023-06-17T13:31:05.125Z,27.72
2023-06-17T13:33:33.941Z,27.73
2023-06-17T13:36:02.667Z,27.80
2023-06-17T13:38:31.932Z,27.65
2023-06-17T13:41:02.014Z,27.56
2023-06-17T13:43:30.527Z,27.69
2023-06-17T13:46:00.226Z,27.49
2023-06-17T13:48:31.837Z,27.55
2023-06-17T13:51:00.924Z,27.57
2023-06-17T13:53:29.503Z,27.60
2023-06-17T13:55:58.122Z,27.69
2023-06-17T13:58:28.394Z,27.58
2023-06-17T14:00:57.544Z,27.59
2023-06-17T14:03:26.220Z,27.55
2023-06-17T14:05:54.954Z,27.55
2023-06-17T14:08:24.125Z,27.56
2023-06-17T14:10:53.862Z,27.45
2023-06-17T14:13:22.467Z,27.56
2023-06-17T14:15:52.722Z,27.24
2023-06-17T14:18:21.274Z,27.30
2023-06-17T14:20:50.090Z,27.17
2023-06-17T14:23:18.654Z,27.36
2023-06-17T14:25:47.294Z,27.20
2023-06-17T14:28:16.357Z,27.45
2023-06-17T14:30:45.833Z,27.36
2023-06-17T14:33:15.746Z,27.49
2023-06-17T14:35:44.469Z,27.50
2023-06-17T14:38:13.039Z,27.75
2023-06-17T14:40:41.570Z,27.74
2023-06-17T14:43:10.188Z,27.70
2023-06-17T14:45:38.914Z,27.44
2023-06-17T14:48:07.619Z,27.64
2023-06-17T14:50:38.831Z,27.50
2023-06-17T14:53:07.299Z,27.42
2023-06-17T14:55:35.887Z,27.24
2023-06-17T14:58:04.589Z,27.43
2023-06-17T15:00:33.160Z,27.45
2023-06-17T15:03:11.281Z,27.25
2023-06-17T15:05:41.593Z,27.25
2023-06-17T15:08:10.189Z,26.99
2023-06-17T15:10:39.109Z,26.96
2023-06-17T15:13:09.363Z,26.72
2023-06-17T15:15:38.043Z,26.73
2023-06-17T15:18:06.608Z,26.70
2023-06-17T15:20:35.204Z,26.56
2023-06-17T15:23:05.561Z,26.64
2023-06-17T15:25:34.479Z,26.73
2023-06-17T15:28:03.116Z,26.69
2023-06-17T15:30:31.729Z,26.56
2023-06-17T15:33:01.018Z,26.57
2023-06-17T15:35:29.605Z,26.41
2023-06-17T15:37:58.687Z,26.45
2023-06-17T15:40:28.673Z,26.43
2023-06-17T15:42:57.277Z,26.25
2023-06-17T15:45:25.900Z,26.23
2023-06-17T15:47:55.104Z,26.09
2023-06-17T15:50:24.725Z,26.15
2023-06-17T15:52:53.306Z,26.19
2023-06-17T15:55:21.896Z,26.12
2023-06-17T15:57:51.794Z,26.07
2023-06-17T16:00:21.002Z,25.92
2023-06-17T16:02:49.623Z,25.98
2023-06-17T16:05:18.994Z,25.82
2023-06-17T16:07:47.515Z,25.89
2023-06-17T16:10:16.258Z,25.78
2023-06-17T16:12:44.811Z,25.86
2023-06-17T16:15:14.915Z,25.79
2023-06-17T16:17:43.616Z,25.61
2023-06-17T16:20:12.852Z,25.73
2023-06-17T16:22:41.390Z,25.74
2023-06-17T16:25:10.329Z,25.74
2023-06-17T16:27:38.878Z,25.67
2023-06-17T16:30:08.684Z,25.87
2023-06-17T16:32:38.829Z,25.69
2023-06-17T16:35:09.752Z,25.80
2023-06-17T16:37:38.415Z,25.71
2023-06-17T16:40:08.266Z,25.77
2023-06-17T16:42:37.107Z,25.61
2023-06-17T16:45:06.969Z,25.68
2023-06-17T16:47:35.562Z,25.66
2023-06-17T16:50:06.169Z,25.51
2023-06-17T16:52:34.775Z,25.63
2023-06-17T16:55:03.325Z,25.44
2023-06-17T16:57:32.624Z,25.36
2023-06-17T17:00:04.132Z,25.21
2023-06-17T17:02:34.490Z,25.39
2023-06-17T17:05:04.656Z,24.91
2023-06-17T17:07:33.303Z,25.11
2023-06-17T17:10:01.820Z,25.18
2023-06-17T17:12:30.448Z,25.33
2023-06-17T17:14:59.025Z,25.39
2023-06-17T17:17:27.931Z,25.45
2023-06-17T17:19:57.072Z,25.06
2023-06-17T17:22:27.220Z,25.15
2023-06-17T17:24:55.881Z,24.96
2023-06-17T17:27:26.225Z,24.98
2023-06-17T17:29:54.866Z,24.58
2023-06-17T17:32:23.888Z,24.49
2023-06-17T17:34:52.390Z,24.76
2023-06-17T17:37:21.199Z,24.92
2023-06-17T17:39:51.851Z,25.01
2023-06-17T17:42:20.565Z,24.76
2023-06-17T17:44:49.038Z,24.47
2023-06-17T17:47:17.419Z,24.65
2023-06-17T17:49:46.200Z,24.39
2023-06-17T17:52:14.681Z,24.65
2023-06-17T17:54:53.465Z,24.72
2023-06-17T17:57:31.154Z,24.62
2023-06-17T17:59:59.571Z,24.54
2023-06-17T18:02:28.160Z,24.41
2023-06-17T18:04:56.675Z,24.03
2023-06-17T18:07:25.166Z,23.98
2023-06-17T18:09:53.740Z,24.11
2023-06-17T18:12:22.264Z,24.07
2023-06-17T18:14:52.211Z,24.11
2023-06-17T18:17:20.769Z,24.13
2023-06-17T18:19:49.244Z,24.08
2023-06-17T18:22:17.845Z,23.86
2023-06-17T18:24:46.549Z,23.80
2023-06-17T18:27:30.838Z,23.67
2023-06-17T18:30:05.812Z,23.55
2023-06-17T18:32:34.359Z,23.44
2023-06-17T18:35:02.863Z,23.52
2023-06-17T18:37:31.545Z,23.35
2023-06-17T18:40:02.645Z,23.22
2023-06-17T18:42:31.324Z,23.20
2023-06-17T18:44:59.940Z,23.12
2023-06-17T18:47:30.492Z,23.09
2023-06-17T18:49:58.820Z,23.29
2023-06-17T18:52:27.485Z,23.24
2023-06-17T18:54:55.982Z,23.18
2023-06-17T18:57:24.721Z,23.16
2023-06-17T18:59:53.297Z,23.13
2023-06-17T19:02:21.960Z,22.93
2023-06-17T19:04:51.945Z,22.87
2023-06-17T19:07:20.482Z,22.83
2023-06-17T19:09:51.337Z,22.50
2023-06-17T19:12:20.080Z,22.61
2023-06-17T19:14:48.792Z,22.42
2023-06-17T19:17:17.707Z,22.67
2023-06-17T19:19:47.990Z,22.58
2023-06-17T19:22:18.000Z,22.54
2023-06-17T19:24:46.395Z,22.46
2023-06-17T19:27:14.884Z,22.33
2023-06-17T19:29:45.759Z,22.27
2023-06-17T19:32:14.376Z,22.21
2023-06-17T19:34:43.054Z,22.17
2023-06-17T19:37:11.633Z,21.92
2023-06-17T19:39:41.804Z,21.79
2023-06-17T19:42:10.510Z,21.77
2023-06-17T19:44:43.949Z,21.84
2023-06-17T19:47:12.653Z,21.71
2023-06-17T19:49:41.822Z,21.73
2023-06-17T19:52:10.433Z,21.80
2023-06-17T19:54:38.941Z,21.76
2023-06-17T19:57:09.210Z,21.33
2023-06-17T19:59:37.868Z,21.46
2023-06-17T20:02:06.663Z,21.38
2023-06-17T20:04:35.380Z,21.47
2023-06-17T20:07:04.714Z,21.40
2023-06-17T20:09:33.254Z,21.30
2023-06-17T20:12:02.238Z,21.19
2023-06-17T20:14:32.612Z,20.83
2023-06-17T20:17:01.257Z,20.71
2023-06-17T20:19:29.823Z,20.50
2023-06-17T20:21:58.418Z,20.41
2023-06-17T20:24:27.114Z,20.36
2023-06-17T20:26:57.158Z,20.17
2023-06-17T20:29:27.027Z,20.20
2023-06-17T20:31:56.914Z,20.16
2023-06-17T20:34:25.525Z,20.09
2023-06-17T20:36:54.283Z,20.20
2023-06-17T20:39:22.829Z,20.12
2023-06-17T20:41:51.486Z,20.10
2023-06-17T20:44:20.175Z,20.22
2023-06-17T20:46:50.082Z,20.05
2023-06-17T20:49:20.162Z,20.06
2023-06-17T20:51:48.720Z,19.87
2023-06-17T20:54:19.509Z,19.87
2023-06-17T20:56:47.769Z,19.83
2023-06-17T20:59:16.956Z,19.81
2023-06-17T21:01:45.394Z,19.67
2023-06-17T21:04:14.508Z,19.67
2023-06-17T21:06:44.594Z,19.61
2023-06-17T21:09:14.110Z,19.46
2023-06-17T21:11:42.767Z,19.38
2023-06-17T21:14:11.235Z,19.27
2023-06-17T21:16:39.734Z,19.27
2023-06-17T21:19:08.280Z,19.27
2023-06-17T21:21:36.841Z,19.11
2023-06-17T21:24:07.087Z,19.10
2023-06-17T21:26:35.827Z,19.10
2023-06-17T21:29:04.405Z,19.22
2023-06-17T21:31:32.915Z,19.19
2023-06-17T21:34:01.543Z,19.18
2023-06-17T21:36:30.052Z,19.29
2023-06-17T21:38:58.696Z,19.17
2023-06-17T21:41:28.754Z,19.42
2023-06-17T21:43:57.530Z,19.31
2023-06-17T21:46:28.431Z,19.35
2023-06-17T21:48:58.533Z,19.37
2023-06-17T21:51:27.230Z,19.32
2023-06-17T21:53:55.870Z,19.40
2023-06-17T21:56:24.576Z,19.39
2023-06-17T21:58:54.629Z,19.61
2023-06-17T22:01:23.481Z,19.50
2023-06-17T22:03:52.184Z,19.50
2023-06-17T22:06:21.027Z,19.51
2023-06-17T22:08:49.629Z,19.25
2023-06-17T22:11:18.389Z,19.52
2023-06-17T22:13:46.907Z,19.51
2023-06-17T22:16:18.039Z,19.75
2023-06-17T22:18:46.732Z,19.47
2023-06-17T22:21:15.398Z,19.54
2023-06-17T22:23:44.036Z,19.68
2023-06-17T22:26:12.540Z,19.75
2023-06-17T22:28:41.263Z,19.54
2023-06-17T22:31:10.020Z,19.54
2023-06-17T22:33:40.050Z,19.71
2023-06-17T22:36:08.718Z,19.52
2023-06-17T22:38:37.317Z,19.14
2023-06-17T22:41:06.193Z,19.10
2023-06-17T22:43:34.984Z,19.03
2023-06-17T22:46:04.117Z,18.91
2023-06-17T22:48:32.846Z,18.81
2023-06-17T22:51:03.029Z,18.73
2023-06-17T22:53:31.908Z,18.67
2023-06-17T22:56:00.484Z,18.61
2023-06-17T22:58:29.082Z,18.55
2023-06-17T23:00:57.931Z,18.50
2023-06-17T23:03:26.750Z,18.54
2023-06-17T23:05:55.330Z,18.42
2023-06-17T23:08:25.321Z,18.44
2023-06-17T23:10:53.867Z,18.31
2023-06-17T23:13:22.444Z,18.60
2023-06-17T23:15:51.174Z,18.47
2023-06-17T23:18:19.763Z,18.39
2023-06-17T23:20:48.279Z,18.34
2023-06-17T23:23:17.237Z,18.42
2023-06-17T23:25:47.481Z,18.32
2023-06-17T23:28:19.230Z,18.56
2023-06-17T23:30:47.930Z,18.46
2023-06-17T23:33:16.826Z,18.57
2023-06-17T23:35:46.309Z,18.54
2023-06-17T23:38:14.966Z,18.54
2023-06-17T23:40:43.645Z,18.69
2023-06-17T23:43:13.705Z,18.78
2023-06-17T23:45:42.439Z,18.79
2023-06-17T23:48:11.197Z,18.91
2023-06-17T23:50:40.230Z,18.95
2023-06-17T23:53:10.060Z,18.87
2023-06-17T23:55:38.703Z,19.01
2023-06-17T23:58:07.328Z,19.03
